createdAt,value
2018-09-16T03:06:48.430Z,93.75
2018-09-16T03:07:49.940Z,93.65
2018-09-16T03:08:48.069Z,93.94
2018-09-16T03:09:51.726Z,93.94
2018-09-16T03:10:49.028Z,94.42
2018-09-16T03:11:48.978Z,94.79
2018-09-16T03:12:49.184Z,95.17
2018-09-16T03:13:49.775Z,95.17
2018-09-16T03:14:49.379Z,94.42
2018-09-16T03:15:49.098Z,94.51
2018-09-16T03:16:49.038Z,95.17
2018-09-16T03:17:48.964Z,94.70
2018-09-16T03:18:50.208Z,94.51
2018-09-16T03:19:51.044Z,94.60
2018-09-16T03:20:50.958Z,94.32
2018-09-16T03:21:51.128Z,94.13
2018-09-16T03:22:50.640Z,92.99
2018-09-16T03:23:50.559Z,93.37
2018-09-16T03:24:51.417Z,93.18
2018-09-16T03:25:52.385Z,93.55
2018-09-16T03:27:50.898Z,93.46
2018-09-16T03:28:51.364Z,93.27
2018-09-16T03:29:50.345Z,93.46
2018-09-16T03:30:49.408Z,94.03
2018-09-16T03:31:49.593Z,93.46
2018-09-16T03:32:49.855Z,93.41
2018-09-16T03:33:50.795Z,93.32
2018-09-16T03:34:49.878Z,93.89
2018-09-16T03:35:50.231Z,93.99
2018-09-16T03:36:50.701Z,94.27
2018-09-16T03:37:50.231Z,93.99
2018-09-16T03:38:50.452Z,94.65
2018-09-16T03:39:51.002Z,95.32
2018-09-16T03:40:50.747Z,97.12
2018-09-16T03:41:50.948Z,97.22
2018-09-16T03:42:51.530Z,97.41
2018-09-16T03:43:51.718Z,97.60
2018-09-16T03:44:51.607Z,97.41
2018-09-16T03:45:52.713Z,97.69
2018-09-16T03:46:52.025Z,97.36
2018-09-16T03:47:52.023Z,97.17
2018-09-16T03:48:52.191Z,96.98
2018-09-16T03:49:52.628Z,97.45
2018-09-16T03:50:53.429Z,97.36
2018-09-16T03:51:56.447Z,96.89
2018-09-16T03:52:53.317Z,96.60
2018-09-16T03:53:53.532Z,97.17
2018-09-16T03:54:54.504Z,97.55
2018-09-16T03:55:55.084Z,97.17
2018-09-16T03:56:53.869Z,97.17
2018-09-16T03:57:54.848Z,97.17
2018-09-16T03:58:55.329Z,97.27
2018-09-16T03:59:54.586Z,97.08
2018-09-16T04:00:55.633Z,97.41
2018-09-16T04:01:54.452Z,97.17
2018-09-16T04:02:54.815Z,97.69
2018-09-16T04:03:54.531Z,97.36
2018-09-16T04:04:55.810Z,97.36
2018-09-16T04:05:57.739Z,97.55
2018-09-16T04:06:56.696Z,97.17
2018-09-16T04:07:55.563Z,97.08
2018-09-16T04:09:01.004Z,97.93
2018-09-16T04:09:56.093Z,97.08
2018-09-16T04:10:58.861Z,96.98
2018-09-16T04:11:56.149Z,96.17
2018-09-16T04:12:56.109Z,96.31
2018-09-16T04:13:57.399Z,96.22
2018-09-16T04:14:57.413Z,95.32
2018-09-16T04:15:58.415Z,94.93
2018-09-16T04:16:57.653Z,94.98
2018-09-16T04:17:57.468Z,94.84
2018-09-16T04:19:02.117Z,95.17
2018-09-16T04:19:57.907Z,94.70
2018-09-16T04:20:58.900Z,94.27
2018-09-16T04:22:04.413Z,94.65
2018-09-16T04:23:00.304Z,93.70
2018-09-16T04:23:59.148Z,94.18
2018-09-16T04:25:00.229Z,94.74
2018-09-16T04:26:00.379Z,94.74
2018-09-16T04:27:00.148Z,95.03
2018-09-16T04:28:00.328Z,94.93
2018-09-16T04:29:01.063Z,95.41
2018-09-16T04:32:44.583Z,96.41
2018-09-16T04:33:45.674Z,96.79
2018-09-16T04:34:47.540Z,96.31
2018-09-16T04:35:44.019Z,96.41
2018-09-16T04:37:45.633Z,94.32
2018-09-16T04:38:46.608Z,93.55
2018-09-16T04:39:45.995Z,93.08
2018-09-16T04:40:46.178Z,93.13
2018-09-16T04:41:47.804Z,93.32
2018-09-16T04:42:48.612Z,93.89
2018-09-16T04:43:46.540Z,93.99
2018-09-16T04:44:48.574Z,94.56
2018-09-16T04:45:51.151Z,93.99
2018-09-16T04:46:48.480Z,93.99
2018-09-16T04:47:49.042Z,94.27
2018-09-16T04:48:46.895Z,93.89
2018-09-16T04:49:46.683Z,93.89
2018-09-16T04:50:45.357Z,93.60
2018-09-16T04:51:46.128Z,93.89
2018-09-16T04:52:44.164Z,94.27
2018-09-16T04:56:29.977Z,94.08
2018-09-16T04:57:30.014Z,93.99
2018-09-16T04:58:30.938Z,94.65
2018-09-16T04:59:30.814Z,94.65
2018-09-16T05:00:36.072Z,94.56
2018-09-16T05:01:31.459Z,94.56
2018-09-16T05:02:33.445Z,95.03
2018-09-16T05:03:39.519Z,95.41
2018-09-16T05:04:34.910Z,95.70
2018-09-16T05:05:33.256Z,96.74
2018-09-16T05:06:30.478Z,97.12
2018-09-16T05:07:30.793Z,97.22
2018-09-16T05:08:30.964Z,97.60
2018-09-16T05:09:29.146Z,97.78
2018-09-16T05:10:31.558Z,96.93
2018-09-16T05:11:29.466Z,95.89
2018-09-16T05:12:29.703Z,95.60
2018-09-16T05:13:29.683Z,94.93
2018-09-16T05:14:30.618Z,94.46
2018-09-16T05:15:30.310Z,95.12
2018-09-16T05:16:30.293Z,94.84
2018-09-16T05:17:30.424Z,94.65
2018-09-16T05:18:30.813Z,94.18
2018-09-16T05:19:30.608Z,94.27
2018-09-16T05:20:31.688Z,94.08
2018-09-16T05:23:23.937Z,94.84
2018-09-16T05:24:24.350Z,94.27
2018-09-16T05:25:25.099Z,94.27
2018-09-16T05:26:24.417Z,93.89
2018-09-16T05:27:24.357Z,93.79
2018-09-16T05:28:25.927Z,93.89
2018-09-16T05:29:25.820Z,93.32
2018-09-16T05:30:27.065Z,93.99
2018-09-16T05:31:29.118Z,94.08
2018-09-16T05:32:27.088Z,93.99
2018-09-16T05:33:27.230Z,93.99
2018-09-16T05:34:25.421Z,93.89
2018-09-16T05:35:25.056Z,93.89
2018-09-16T05:36:24.813Z,93.60
2018-09-16T05:37:25.943Z,93.70
2018-09-16T05:38:24.645Z,93.51
2018-09-16T05:39:24.376Z,94.27
2018-09-16T05:40:24.490Z,94.18
2018-09-16T05:41:25.862Z,94.18
2018-09-16T05:42:26.957Z,94.65
2018-09-16T05:43:36.132Z,94.65
2018-09-16T05:53:16.200Z,96.22
2018-09-16T06:02:37.118Z,94.79
2018-09-16T06:10:45.757Z,94.03
2018-09-16T06:11:46.177Z,93.94
2018-09-16T06:12:46.778Z,94.32
2018-09-16T06:13:46.953Z,93.94
2018-09-16T06:14:48.040Z,93.84
2018-09-16T06:15:46.349Z,94.22
2018-09-16T06:16:44.311Z,94.22
2018-09-16T06:17:44.363Z,94.22
2018-09-16T06:18:44.579Z,93.75
2018-09-16T06:19:44.579Z,93.84
2018-09-16T06:20:44.709Z,93.75
2018-09-16T06:21:45.199Z,93.84
2018-09-16T06:22:45.297Z,93.55
2018-09-16T06:23:45.692Z,93.79
2018-09-16T06:24:45.737Z,93.94
2018-09-16T06:25:46.563Z,93.98
2018-09-16T06:26:45.910Z,93.79
2018-09-16T06:27:46.082Z,93.98
2018-09-16T06:28:47.194Z,94.18
2018-09-16T06:29:46.548Z,93.51
2018-09-16T06:30:46.557Z,93.51
2018-09-16T06:31:46.936Z,93.23
2018-09-16T06:32:47.413Z,93.89
2018-09-16T06:33:47.610Z,93.74
2018-09-16T06:34:47.246Z,94.32
2018-09-16T06:35:47.523Z,94.03
2018-09-16T06:36:47.713Z,93.55
2018-09-16T06:37:47.932Z,93.55
2018-09-16T06:38:48.719Z,93.37
2018-09-16T06:39:48.228Z,93.37
2018-09-16T06:40:48.428Z,92.79
2018-09-16T06:41:48.704Z,93.08
2018-09-16T06:42:49.449Z,92.51
2018-09-16T06:43:49.115Z,92.51
2018-09-16T06:44:49.858Z,92.70
2018-09-16T06:45:49.400Z,92.36
2018-09-16T06:46:49.490Z,91.79
2018-09-16T06:47:49.657Z,91.89
2018-09-16T06:48:49.894Z,91.99
2018-09-16T06:49:50.792Z,91.89
2018-09-16T06:50:51.309Z,91.70
2018-09-16T06:51:50.518Z,91.31
2018-09-16T07:04:34.754Z,90.74
2018-09-16T07:07:52.084Z,87.74
2018-09-16T07:08:53.455Z,86.16
2018-09-16T07:09:53.549Z,85.34
2018-09-16T07:14:58.134Z,80.02
2018-09-16T07:16:00.393Z,79.16
2018-09-16T07:16:58.591Z,77.95
2018-09-16T07:18:07.809Z,76.65
2018-09-16T07:18:59.117Z,75.51
2018-09-16T07:19:58.492Z,74.77
2018-09-16T07:20:58.709Z,73.63
2018-09-16T07:21:58.784Z,73.28
2018-09-16T07:22:59.031Z,72.17
2018-09-16T07:23:59.209Z,71.02
2018-09-16T07:24:59.353Z,71.40
2018-09-16T07:25:59.574Z,71.02
2018-09-16T07:26:59.725Z,70.09
2018-09-16T07:28:02.896Z,69.71
2018-09-16T07:29:00.585Z,69.33
2018-09-16T07:30:00.144Z,69.17
2018-09-16T07:31:03.076Z,67.92
2018-09-16T07:32:01.064Z,66.49
2018-09-16T07:33:01.612Z,66.71
2018-09-16T07:34:04.536Z,65.40
2018-09-16T07:35:03.029Z,64.72
2018-09-16T07:36:01.740Z,63.79
2018-09-16T07:37:02.521Z,62.68
2018-09-16T07:38:04.322Z,62.03
2018-09-16T07:39:02.631Z,60.69
2018-09-16T07:40:02.657Z,60.59
2018-09-16T07:46:42.800Z,58.34
2018-09-16T07:47:44.332Z,58.27
2018-09-16T07:48:56.813Z,57.79
2018-09-16T07:49:41.964Z,56.85
2018-09-16T07:50:40.690Z,57.05
2018-09-16T07:51:40.797Z,56.01
2018-09-16T07:52:40.910Z,56.30
2018-09-16T07:53:41.054Z,54.40
2018-09-16T08:39:29.627Z,44.30
2018-09-16T08:59:08.623Z,39.00
2018-09-16T09:58:31.091Z,34.01
2018-09-16T09:59:30.350Z,32.06
2018-09-16T10:00:28.842Z,31.95
2018-09-16T10:01:28.724Z,32.53
2018-09-16T10:02:29.112Z,33.70
2018-09-16T10:03:29.306Z,33.80
2018-09-16T10:04:29.325Z,33.22
2018-09-16T10:05:29.612Z,33.31
2018-09-16T10:06:30.018Z,32.84
2018-09-16T10:07:30.084Z,33.64
2018-09-16T10:08:30.280Z,33.04
2018-09-16T10:09:30.332Z,32.24
2018-09-16T10:10:30.504Z,32.81
2018-09-16T10:11:30.750Z,31.85
2018-09-16T10:12:30.897Z,31.66
2018-09-16T10:13:31.362Z,29.92
2018-09-16T10:14:31.844Z,30.34
2018-09-16T10:15:32.288Z,30.42
2018-09-16T10:16:31.592Z,30.71
2018-09-16T10:17:31.864Z,28.88
2018-09-16T10:18:32.156Z,29.85
2018-09-16T10:19:32.245Z,29.63
2018-09-16T10:20:32.808Z,30.71
2018-09-16T10:21:33.379Z,30.32
2018-09-16T10:24:16.427Z,30.05
2018-09-16T10:25:18.138Z,29.66
2018-09-16T10:26:18.246Z,29.83
2018-09-16T10:27:17.208Z,29.93
2018-09-16T10:28:16.558Z,29.56
2018-09-16T10:29:17.467Z,29.28
2018-09-16T10:30:17.086Z,29.20
2018-09-16T10:31:17.231Z,28.52
2018-09-16T10:32:18.685Z,28.33
2018-09-16T10:33:17.476Z,27.26
2018-09-16T10:34:19.680Z,27.37
2018-09-16T10:35:23.666Z,27.16
2018-09-16T11:10:25.152Z,25.09
2018-09-16T11:11:15.057Z,24.96
2018-09-16T11:12:12.993Z,25.06
2018-09-16T11:13:12.830Z,25.84
2018-09-16T11:14:12.958Z,25.65
2018-09-16T11:15:12.954Z,25.67
2018-09-16T11:16:13.108Z,24.21
2018-09-16T11:17:13.349Z,24.03
2018-09-16T11:18:14.188Z,23.44
2018-09-16T11:19:13.776Z,23.85
2018-09-16T11:20:14.086Z,22.67
2018-09-16T11:58:18.815Z,21.81
2018-09-16T11:58:32.140Z,21.62
2018-09-16T11:59:34.379Z,22.31
2018-09-16T12:00:32.381Z,21.64
2018-09-16T12:01:32.489Z,20.76
2018-09-16T12:02:32.673Z,19.98
2018-09-16T12:03:32.822Z,20.84
2018-09-16T12:04:32.953Z,21.34
2018-09-16T12:05:33.200Z,20.47
2018-09-16T12:06:33.398Z,20.17
2018-09-16T12:07:33.623Z,19.96
2018-09-16T12:08:33.804Z,20.64
2018-09-16T12:09:33.939Z,20.75
2018-09-16T12:10:34.116Z,20.25
2018-09-16T12:11:34.320Z,20.45
2018-09-16T12:12:34.464Z,20.46
2018-09-16T12:13:34.711Z,20.57
2018-09-16T12:14:34.971Z,20.18
2018-09-16T12:15:35.075Z,19.49
2018-09-16T12:16:35.193Z,19.38
2018-09-16T12:17:35.389Z,20.67
2018-09-16T12:18:35.590Z,20.48
2018-09-16T12:19:35.728Z,19.48
2018-09-16T12:20:35.920Z,20.27
2018-09-16T12:21:36.121Z,19.78
2018-09-16T12:22:36.264Z,18.90
2018-09-16T12:23:36.457Z,19.89
2018-09-16T12:24:36.783Z,20.37
2018-09-16T12:37:16.269Z,20.53
2018-09-16T12:39:31.921Z,20.64
2018-09-16T12:40:13.170Z,19.87
2018-09-16T12:42:16.863Z,19.76
2018-09-16T12:43:13.803Z,18.79
2018-09-16T12:45:48.291Z,18.90
2018-09-16T12:47:53.389Z,19.67
2018-09-16T12:48:46.648Z,20.06
2018-09-16T12:49:46.967Z,20.64
2018-09-16T12:50:46.987Z,20.92
2018-09-16T12:51:47.252Z,20.93
2018-09-16T12:52:47.484Z,20.43
2018-09-16T12:58:42.669Z,20.51
2018-09-16T13:00:39.566Z,20.22
2018-09-16T13:33:56.506Z,17.80
2018-09-16T13:44:01.632Z,18.88
2018-09-16T13:49:57.342Z,17.82
2018-09-16T13:50:57.484Z,17.82
2018-09-16T13:51:57.825Z,17.81
2018-09-16T13:52:56.057Z,18.90
2018-09-16T13:53:55.880Z,18.77
2018-09-16T13:54:56.080Z,19.66
2018-09-16T13:55:56.217Z,18.68
2018-09-16T13:56:56.401Z,18.58
2018-09-16T13:57:56.488Z,19.07
2018-09-16T13:58:56.762Z,18.79
2018-09-16T13:59:56.966Z,18.50
2018-09-16T14:00:58.418Z,17.82
2018-09-16T14:01:57.387Z,17.63
2018-09-16T14:02:57.466Z,18.02
2018-09-16T14:03:57.724Z,18.31
2018-09-16T14:05:12.872Z,17.92
2018-09-16T14:05:58.202Z,18.02
2018-09-16T14:06:58.649Z,18.40
2018-09-16T14:07:59.271Z,19.18
2018-09-16T14:08:59.047Z,18.79
2018-09-16T14:09:59.109Z,18.29
2018-09-16T14:10:59.378Z,17.71
2018-09-16T14:11:59.484Z,17.91
2018-09-16T14:12:59.650Z,18.48
2018-09-16T14:13:59.909Z,18.96
2018-09-16T14:15:00.077Z,18.88
2018-09-16T14:16:00.318Z,19.07
2018-09-16T14:17:00.453Z,18.88
2018-09-16T14:18:00.627Z,18.77
2018-09-16T14:19:00.801Z,18.59
2018-09-16T14:20:01.173Z,18.60
2018-09-16T14:21:01.522Z,18.49
2018-09-16T14:22:01.446Z,18.01
2018-09-16T14:23:01.599Z,18.39
2018-09-16T14:24:01.751Z,18.59
2018-09-16T14:25:02.044Z,18.60
2018-09-16T14:26:02.156Z,17.80
2018-09-16T14:27:02.264Z,18.79
2018-09-16T14:28:02.435Z,18.68
2018-09-16T14:29:02.765Z,18.68
2018-09-16T14:30:02.903Z,17.90
2018-09-16T14:31:03.089Z,18.39
2018-09-16T14:32:03.634Z,18.58
2018-09-16T14:33:03.549Z,18.66
2018-09-16T14:34:03.681Z,19.24
2018-09-16T14:35:03.861Z,19.32
2018-09-16T14:36:04.558Z,19.62
2018-09-16T14:37:04.371Z,20.49
2018-09-16T14:38:04.902Z,20.59
2018-09-16T14:39:04.920Z,20.39
2018-09-16T14:40:05.391Z,20.59
2018-09-16T14:41:05.220Z,19.71
2018-09-16T14:42:05.339Z,19.71
2018-09-16T14:43:05.455Z,20.19
2018-09-16T14:44:05.638Z,21.36
2018-09-16T14:45:05.807Z,21.25
2018-09-16T14:46:06.157Z,22.41
2018-09-16T14:47:06.426Z,23.66
2018-09-16T14:48:06.378Z,23.47
2018-09-16T14:49:07.268Z,23.55
2018-09-16T14:50:06.750Z,24.32
2018-09-16T14:51:07.275Z,24.69
2018-09-16T14:52:07.283Z,24.60
2018-09-16T14:53:07.588Z,25.56
2018-09-16T14:54:07.665Z,24.78
2018-09-16T14:55:07.805Z,25.54
2018-09-16T14:56:08.201Z,26.41
2018-09-16T14:57:08.182Z,26.69
2018-09-16T14:58:08.622Z,26.30
2018-09-16T14:59:08.519Z,26.39
2018-09-16T15:00:08.892Z,26.97
2018-09-16T15:01:09.104Z,27.16
2018-09-16T15:02:09.096Z,27.26
2018-09-16T15:03:09.565Z,27.55
2018-09-16T15:04:09.720Z,27.18
2018-09-16T15:05:09.731Z,26.98
2018-09-16T15:06:10.133Z,26.40
2018-09-16T15:07:10.201Z,27.47
2018-09-16T15:13:46.713Z,24.90
2018-09-16T15:14:41.907Z,24.41
2018-09-16T15:17:08.508Z,24.50
2018-09-16T15:17:29.869Z,24.80
2018-09-16T15:21:00.918Z,24.21
2018-09-16T15:22:04.096Z,24.69
2018-09-16T15:23:14.596Z,25.64
2018-09-16T15:23:56.137Z,27.30
2018-09-16T15:24:58.454Z,28.45
2018-09-16T15:27:10.269Z,27.16
2018-09-16T15:30:14.980Z,28.11
2018-09-16T15:30:58.002Z,28.20
2018-09-16T15:33:57.693Z,28.88
2018-09-16T15:35:01.533Z,29.36
2018-09-16T15:36:41.871Z,29.85
2018-09-16T15:37:13.011Z,30.32
2018-09-16T15:37:59.476Z,30.40
2018-09-16T15:39:00.948Z,31.18
2018-09-16T15:40:05.265Z,31.37
2018-09-16T15:40:56.491Z,32.15
2018-09-16T15:41:57.048Z,31.85
2018-09-16T15:42:54.959Z,31.08
2018-09-16T15:43:54.960Z,31.37
2018-09-16T15:49:06.847Z,33.31
2018-09-16T15:50:08.458Z,33.31
2018-09-16T15:51:07.909Z,32.44
2018-09-16T15:52:08.184Z,32.05
2018-09-16T15:53:44.306Z,32.23
2018-09-16T15:54:17.666Z,31.84
2018-09-16T15:55:09.964Z,31.74
2018-09-16T15:57:09.211Z,31.35
2018-09-16T15:58:10.061Z,30.77
2018-09-16T15:59:11.973Z,31.35
2018-09-16T16:01:23.804Z,32.04
2018-09-16T16:02:08.993Z,34.06
2018-09-16T16:16:53.984Z,38.46
2018-09-16T19:38:17.066Z,66.06
2018-09-16T19:39:29.173Z,66.54
2018-09-16T19:40:25.551Z,66.45
2018-09-16T19:41:23.373Z,66.35
2018-09-16T19:42:22.761Z,66.45
2018-09-16T19:43:27.398Z,66.45
2018-09-16T19:46:17.003Z,66.74
2018-09-16T19:47:16.633Z,66.83
2018-09-16T19:48:16.617Z,66.74
2018-09-16T19:49:17.644Z,66.74
2018-09-16T19:50:15.012Z,66.83
2018-09-16T19:51:12.799Z,67.50
2018-09-16T19:52:13.365Z,67.56
2018-09-16T19:54:51.357Z,67.66
2018-09-16T19:55:20.896Z,68.23
2018-09-16T19:57:26.603Z,67.76
2018-09-16T19:58:45.376Z,67.76
2018-09-16T19:59:41.218Z,67.85
2018-09-16T20:01:00.577Z,67.85
2018-09-16T20:01:51.926Z,68.04
2018-09-16T20:02:50.028Z,67.85
2018-09-16T20:03:41.726Z,68.33
2018-09-16T20:04:43.087Z,68.04
2018-09-16T20:05:40.215Z,69.19
2018-09-16T20:07:56.762Z,68.62
2018-09-16T20:09:42.715Z,69.38
2018-09-16T20:10:44.580Z,69.09
2018-09-16T20:11:51.381Z,69.64
2018-09-16T20:12:46.247Z,69.54
2018-09-16T20:14:02.357Z,69.25
2018-09-16T20:15:21.498Z,69.35
2018-09-16T20:15:41.717Z,69.64
2018-09-16T20:16:45.839Z,69.35
2018-09-16T20:17:50.284Z,69.64
2018-09-16T20:18:43.232Z,69.92
2018-09-16T20:19:44.747Z,69.82
2018-09-16T20:21:11.215Z,70.11
2018-09-16T20:21:44.555Z,69.82
2018-09-16T20:22:49.207Z,70.59
2018-09-16T20:23:47.691Z,70.65
2018-09-16T20:25:45.081Z,70.56
2018-09-16T20:26:45.095Z,70.59
2018-09-16T20:27:45.724Z,70.59
2018-09-16T20:28:47.464Z,71.03
2018-09-16T20:29:45.052Z,71.42
2018-09-16T20:30:46.994Z,71.22
2018-09-16T20:31:52.614Z,71.13
2018-09-16T20:32:49.784Z,71.03
2018-09-16T20:33:49.884Z,71.80
2018-09-16T20:34:54.727Z,71.42
2018-09-16T20:35:53.480Z,71.80
2018-09-16T20:37:55.145Z,71.51
2018-09-16T20:38:57.574Z,71.32
2018-09-16T20:40:03.491Z,71.42
2018-09-16T20:40:51.772Z,71.22
2018-09-16T20:41:50.253Z,71.70
2018-09-16T20:42:51.798Z,71.80
2018-09-16T20:43:47.086Z,71.99
2018-09-16T20:44:47.237Z,71.89
2018-09-16T20:45:46.867Z,71.61
2018-09-16T20:46:47.226Z,71.61
2018-09-16T20:47:47.359Z,71.80
2018-09-16T20:48:48.445Z,71.51
2018-09-16T20:49:47.836Z,71.61
2018-09-16T20:50:49.696Z,72.05
2018-09-16T20:52:48.778Z,72.91
2018-09-16T20:53:46.347Z,72.53
2018-09-16T20:54:46.060Z,73.19
2018-09-16T20:55:46.420Z,73.10
2018-09-16T20:56:46.621Z,73.39
2018-09-16T20:57:46.213Z,73.67
2018-09-16T20:58:46.749Z,73.67
2018-09-16T20:59:47.309Z,73.48
2018-09-16T21:01:47.636Z,73.54
2018-09-16T21:02:47.172Z,73.54
2018-09-16T21:03:47.145Z,74.49
2018-09-16T21:04:47.616Z,73.92
2018-09-16T21:06:01.800Z,74.30
2018-09-16T21:06:53.457Z,74.40
2018-09-16T21:08:00.205Z,74.59
2018-09-16T21:08:50.933Z,74.53
2018-09-16T21:10:52.301Z,74.73
2018-09-16T21:11:55.220Z,74.11
2018-09-16T21:12:52.992Z,74.24
2018-09-16T21:13:52.148Z,74.24
2018-09-16T21:14:52.350Z,74.30
2018-09-16T21:15:51.537Z,74.40
2018-09-16T21:16:49.851Z,74.21
2018-09-16T21:17:50.264Z,74.21
2018-09-16T21:18:52.707Z,73.92
2018-09-16T21:19:50.372Z,73.92
2018-09-16T21:20:51.332Z,74.11
2018-09-16T21:21:51.274Z,74.21
2018-09-16T21:22:57.316Z,74.63
2018-09-16T21:24:05.683Z,74.40
2018-09-16T21:24:53.457Z,74.34
2018-09-16T21:25:51.115Z,74.63
2018-09-16T21:26:51.955Z,73.73
2018-09-16T21:27:53.506Z,74.59
2018-09-16T21:28:52.181Z,74.53
2018-09-16T21:29:51.620Z,74.63
2018-09-16T21:30:52.686Z,74.59
2018-09-16T21:31:52.538Z,74.40
2018-09-16T21:32:53.955Z,74.21
2018-09-16T21:33:54.492Z,74.11
2018-09-16T21:35:16.008Z,74.11
2018-09-16T21:45:02.250Z,75.16
